Terminal Aerodrome Forecast
Issued by NWS

Home | Current Version | Previous Version | Text Only | Print | Product List | Glossary On
Versions: 1 2 3 4 5 6 7 8 9 10 11 12 13 14
000
FTUS43 KIND 232325
TAFBMG
TAF
KBMG 232325Z 2400/2424 15003KT P6SM FEW050 BKN100
     FM240700 17005KT P6SM BKN040
     FM241200 19009KT P6SM VCSH OVC035
      TEMPO 2413/2417 5SM -SHRA BR OVC025
     FM241800 21012G18KT P6SM VCTS BKN040CB
      AMD LTD TO CLD WIND AND VIS 2401/2413=

USA.gov is the U.S. government's official web portal to all federal, state and local government web resources and services.